sensor_id;sensor_type;location;lat;lon;timestamp;temperature;humidity
5834;DHT22;2943;48.012;10.968;2022-07-30T00:02:08;17.30;99.90
5834;DHT22;2943;48.012;10.968;2022-07-30T00:04:35;17.30;99.90
5834;DHT22;2943;48.012;10.968;2022-07-30T00:07:02;17.20;99.90
5834;DHT22;2943;48.012;10.968;2022-07-30T00:09:29;17.10;99.90
5834;DHT22;2943;48.012;10.968;2022-07-30T00:11:57;17.10;99.90
5834;DHT22;2943;48.012;10.968;2022-07-30T00:14:24;17.00;99.90
5834;DHT22;2943;48.012;10.968;2022-07-30T00:16:51;17.00;99.90
5834;DHT22;2943;48.012;10.968;2022-07-30T00:19:18;17.00;99.90
5834;DHT22;2943;48.012;10.968;2022-07-30T00:21:45;16.90;99.90
5834;DHT22;2943;48.012;10.968;2022-07-30T00:24:12;16.90;99.90
5834;DHT22;2943;48.012;10.968;2022-07-30T00:26:39;16.80;99.90
5834;DHT22;2943;48.012;10.968;2022-07-30T00:29:07;16.80;99.90
5834;DHT22;2943;48.012;10.968;2022-07-30T00:31:34;16.80;99.90
5834;DHT22;2943;48.012;10.968;2022-07-30T00:34:00;16.80;99.90
5834;DHT22;2943;48.012;10.968;2022-07-30T00:36:27;16.80;99.90
5834;DHT22;2943;48.012;10.968;2022-07-30T00:38:54;16.80;99.90
5834;DHT22;2943;48.012;10.968;2022-07-30T00:41:21;16.80;99.90
5834;DHT22;2943;48.012;10.968;2022-07-30T00:43:48;16.70;99.90
5834;DHT22;2943;48.012;10.968;2022-07-30T00:46:16;16.70;99.90
5834;DHT22;2943;48.012;10.968;2022-07-30T00:48:43;16.70;99.90
5834;DHT22;2943;48.012;10.968;2022-07-30T00:51:10;16.60;99.90
5834;DHT22;2943;48.012;10.968;2022-07-30T00:53:37;16.60;99.90
5834;DHT22;2943;48.012;10.968;2022-07-30T00:56:05;16.60;99.90
5834;DHT22;2943;48.012;10.968;2022-07-30T00:58:32;16.60;99.90
5834;DHT22;2943;48.012;10.968;2022-07-30T01:00:58;16.60;99.90
5834;DHT22;2943;48.012;10.968;2022-07-30T01:03:27;16.60;99.90
5834;DHT22;2943;48.012;10.968;2022-07-30T01:05:53;16.60;99.90
5834;DHT22;2943;48.012;10.968;2022-07-30T01:08:20;16.60;99.90
5834;DHT22;2943;48.012;10.968;2022-07-30T01:10:47;16.60;99.90
5834;DHT22;2943;48.012;10.968;2022-07-30T01:13:14;16.50;99.90
5834;DHT22;2943;48.012;10.968;2022-07-30T01:15:41;16.50;99.90
5834;DHT22;2943;48.012;10.968;2022-07-30T01:18:10;16.50;99.90
5834;DHT22;2943;48.012;10.968;2022-07-30T01:20:43;16.50;99.90
5834;DHT22;2943;48.012;10.968;2022-07-30T01:23:16;16.50;99.90
5834;DHT22;2943;48.012;10.968;2022-07-30T01:25:53;16.50;99.90
5834;DHT22;2943;48.012;10.968;2022-07-30T01:28:23;16.40;99.90
5834;DHT22;2943;48.012;10.968;2022-07-30T01:30:53;16.40;99.90
5834;DHT22;2943;48.012;10.968;2022-07-30T01:33:22;16.40;99.90
5834;DHT22;2943;48.012;10.968;2022-07-30T01:35:50;16.40;99.90
5834;DHT22;2943;48.012;10.968;2022-07-30T01:38:20;16.30;99.90
5834;DHT22;2943;48.012;10.968;2022-07-30T01:40:48;16.30;99.90
5834;DHT22;2943;48.012;10.968;2022-07-30T01:43:18;16.40;99.90
5834;DHT22;2943;48.012;10.968;2022-07-30T01:45:46;16.30;99.90
5834;DHT22;2943;48.012;10.968;2022-07-30T01:48:16;16.30;99.90
5834;DHT22;2943;48.012;10.968;2022-07-30T01:50:45;16.30;99.90
5834;DHT22;2943;48.012;10.968;2022-07-30T01:53:16;16.30;99.90
5834;DHT22;2943;48.012;10.968;2022-07-30T01:55:43;16.30;99.90
5834;DHT22;2943;48.012;10.968;2022-07-30T01:58:11;16.30;99.90
5834;DHT22;2943;48.012;10.968;2022-07-30T02:00:42;16.30;99.90
5834;DHT22;2943;48.012;10.968;2022-07-30T02:03:09;16.30;99.90
5834;DHT22;2943;48.012;10.968;2022-07-30T02:05:37;16.30;99.90
5834;DHT22;2943;48.012;10.968;2022-07-30T02:08:11;16.30;99.90
5834;DHT22;2943;48.012;10.968;2022-07-30T02:10:44;16.30;99.90
5834;DHT22;2943;48.012;10.968;2022-07-30T02:13:14;16.30;99.90
5834;DHT22;2943;48.012;10.968;2022-07-30T02:15:48;16.30;99.90
5834;DHT22;2943;48.012;10.968;2022-07-30T02:18:21;16.30;99.90
5834;DHT22;2943;48.012;10.968;2022-07-30T02:21:00;16.30;99.90
5834;DHT22;2943;48.012;10.968;2022-07-30T02:23:30;16.30;99.90
5834;DHT22;2943;48.012;10.968;2022-07-30T02:26:01;16.30;99.90
5834;DHT22;2943;48.012;10.968;2022-07-30T02:28:29;16.30;99.90
5834;DHT22;2943;48.012;10.968;2022-07-30T02:31:00;16.30;99.90
5834;DHT22;2943;48.012;10.968;2022-07-30T02:33:33;16.30;99.90
5834;DHT22;2943;48.012;10.968;2022-07-30T02:36:03;16.30;99.90
5834;DHT22;2943;48.012;10.968;2022-07-30T02:38:31;16.30;99.90
5834;DHT22;2943;48.012;10.968;2022-07-30T02:41:01;16.30;99.90
5834;DHT22;2943;48.012;10.968;2022-07-30T02:43:29;16.30;99.90
5834;DHT22;2943;48.012;10.968;2022-07-30T02:45:58;16.20;99.90
5834;DHT22;2943;48.012;10.968;2022-07-30T02:48:26;16.20;99.90
5834;DHT22;2943;48.012;10.968;2022-07-30T02:50:55;16.20;99.90
5834;DHT22;2943;48.012;10.968;2022-07-30T02:53:24;16.20;99.90
5834;DHT22;2943;48.012;10.968;2022-07-30T02:55:53;16.20;99.90
5834;DHT22;2943;48.012;10.968;2022-07-30T02:58:22;16.20;99.90
5834;DHT22;2943;48.012;10.968;2022-07-30T03:00:52;16.20;99.90
5834;DHT22;2943;48.012;10.968;2022-07-30T03:03:22;16.10;99.90
5834;DHT22;2943;48.012;10.968;2022-07-30T03:05:54;16.10;99.90
5834;DHT22;2943;48.012;10.968;2022-07-30T03:08:21;16.10;99.90
5834;DHT22;2943;48.012;10.968;2022-07-30T03:10:50;16.10;99.90
5834;DHT22;2943;48.012;10.968;2022-07-30T03:13:19;16.10;99.90
5834;DHT22;2943;48.012;10.968;2022-07-30T03:15:49;16.10;99.90
5834;DHT22;2943;48.012;10.968;2022-07-30T03:18:17;16.00;99.90
5834;DHT22;2943;48.012;10.968;2022-07-30T03:20:49;16.10;99.90
5834;DHT22;2943;48.012;10.968;2022-07-30T03:23:17;16.10;99.90
5834;DHT22;2943;48.012;10.968;2022-07-30T03:25:48;16.00;99.90
5834;DHT22;2943;48.012;10.968;2022-07-30T03:28:17;16.00;99.90
5834;DHT22;2943;48.012;10.968;2022-07-30T03:30:45;16.00;99.90
5834;DHT22;2943;48.012;10.968;2022-07-30T03:33:13;16.00;99.90
5834;DHT22;2943;48.012;10.968;2022-07-30T03:35:41;16.00;99.90
5834;DHT22;2943;48.012;10.968;2022-07-30T03:38:11;16.00;99.90
5834;DHT22;2943;48.012;10.968;2022-07-30T03:40:38;16.00;99.90
5834;DHT22;2943;48.012;10.968;2022-07-30T03:43:06;16.00;99.90
5834;DHT22;2943;48.012;10.968;2022-07-30T03:45:34;16.00;99.90
5834;DHT22;2943;48.012;10.968;2022-07-30T03:48:02;16.10;99.90
5834;DHT22;2943;48.012;10.968;2022-07-30T03:50:29;16.10;99.90
5834;DHT22;2943;48.012;10.968;2022-07-30T03:52:57;16.10;99.90
5834;DHT22;2943;48.012;10.968;2022-07-30T03:55:25;16.10;99.90
5834;DHT22;2943;48.012;10.968;2022-07-30T03:57:52;16.10;99.90
5834;DHT22;2943;48.012;10.968;2022-07-30T04:00:19;16.10;99.90
5834;DHT22;2943;48.012;10.968;2022-07-30T04:02:46;16.10;99.90
5834;DHT22;2943;48.012;10.968;2022-07-30T04:05:13;16.10;99.90
5834;DHT22;2943;48.012;10.968;2022-07-30T04:07:40;16.10;99.90
5834;DHT22;2943;48.012;10.968;2022-07-30T04:10:07;16.10;99.90
5834;DHT22;2943;48.012;10.968;2022-07-30T04:12:36;16.10;99.90
5834;DHT22;2943;48.012;10.968;2022-07-30T04:15:03;16.10;99.90
5834;DHT22;2943;48.012;10.968;2022-07-30T04:17:34;16.10;99.90
5834;DHT22;2943;48.012;10.968;2022-07-30T04:20:05;16.10;99.90
5834;DHT22;2943;48.012;10.968;2022-07-30T04:22:35;16.10;99.90
5834;DHT22;2943;48.012;10.968;2022-07-30T04:25:04;16.10;99.90
5834;DHT22;2943;48.012;10.968;2022-07-30T04:27:33;16.10;99.90
5834;DHT22;2943;48.012;10.968;2022-07-30T04:30:02;16.10;99.90
5834;DHT22;2943;48.012;10.968;2022-07-30T04:32:29;16.10;99.90
5834;DHT22;2943;48.012;10.968;2022-07-30T04:34:56;16.00;99.90
5834;DHT22;2943;48.012;10.968;2022-07-30T04:37:24;16.00;99.90
5834;DHT22;2943;48.012;10.968;2022-07-30T04:39:52;16.00;99.90
5834;DHT22;2943;48.012;10.968;2022-07-30T04:42:21;16.00;99.90
5834;DHT22;2943;48.012;10.968;2022-07-30T04:44:47;16.00;99.90
5834;DHT22;2943;48.012;10.968;2022-07-30T04:47:16;16.00;99.90
5834;DHT22;2943;48.012;10.968;2022-07-30T04:49:44;16.00;99.90
5834;DHT22;2943;48.012;10.968;2022-07-30T04:52:12;16.00;99.90
5834;DHT22;2943;48.012;10.968;2022-07-30T04:54:43;16.00;99.90
5834;DHT22;2943;48.012;10.968;2022-07-30T04:57:12;16.00;99.90
5834;DHT22;2943;48.012;10.968;2022-07-30T04:59:39;16.10;99.90
5834;DHT22;2943;48.012;10.968;2022-07-30T05:02:07;16.10;99.90
5834;DHT22;2943;48.012;10.968;2022-07-30T05:04:36;16.10;99.90
5834;DHT22;2943;48.012;10.968;2022-07-30T05:07:04;16.10;99.90
5834;DHT22;2943;48.012;10.968;2022-07-30T05:09:32;16.20;99.90
5834;DHT22;2943;48.012;10.968;2022-07-30T05:11:59;16.20;99.90
5834;DHT22;2943;48.012;10.968;2022-07-30T05:14:27;16.30;99.90
5834;DHT22;2943;48.012;10.968;2022-07-30T05:16:54;16.30;99.90
5834;DHT22;2943;48.012;10.968;2022-07-30T05:19:21;16.30;99.90
5834;DHT22;2943;48.012;10.968;2022-07-30T05:21:49;16.40;99.90
5834;DHT22;2943;48.012;10.968;2022-07-30T05:24:16;16.40;99.90
5834;DHT22;2943;48.012;10.968;2022-07-30T05:26:44;16.50;99.90
5834;DHT22;2943;48.012;10.968;2022-07-30T05:29:11;16.50;99.90
5834;DHT22;2943;48.012;10.968;2022-07-30T05:31:38;16.50;99.90
5834;DHT22;2943;48.012;10.968;2022-07-30T05:34:05;16.50;99.90
5834;DHT22;2943;48.012;10.968;2022-07-30T05:36:32;16.50;99.90
5834;DHT22;2943;48.012;10.968;2022-07-30T05:39:00;16.60;99.90
5834;DHT22;2943;48.012;10.968;2022-07-30T05:41:27;16.60;99.90
5834;DHT22;2943;48.012;10.968;2022-07-30T05:43:54;16.60;99.90
5834;DHT22;2943;48.012;10.968;2022-07-30T05:46:22;16.60;99.90
5834;DHT22;2943;48.012;10.968;2022-07-30T05:48:49;16.60;99.90
5834;DHT22;2943;48.012;10.968;2022-07-30T05:51:16;16.60;99.90
5834;DHT22;2943;48.012;10.968;2022-07-30T05:53:44;16.70;99.90
5834;DHT22;2943;48.012;10.968;2022-07-30T05:56:12;16.70;99.90
5834;DHT22;2943;48.012;10.968;2022-07-30T05:58:39;16.70;99.90
5834;DHT22;2943;48.012;10.968;2022-07-30T06:01:06;16.70;99.90
5834;DHT22;2943;48.012;10.968;2022-07-30T06:03:32;16.70;99.90
5834;DHT22;2943;48.012;10.968;2022-07-30T06:06:01;16.80;99.90
5834;DHT22;2943;48.012;10.968;2022-07-30T06:08:28;16.90;99.90
5834;DHT22;2943;48.012;10.968;2022-07-30T06:10:55;17.00;99.90
5834;DHT22;2943;48.012;10.968;2022-07-30T06:13:23;17.00;99.90
5834;DHT22;2943;48.012;10.968;2022-07-30T06:15:50;17.00;99.90
5834;DHT22;2943;48.012;10.968;2022-07-30T06:18:17;17.10;99.90
5834;DHT22;2943;48.012;10.968;2022-07-30T06:20:44;17.10;99.90
5834;DHT22;2943;48.012;10.968;2022-07-30T06:23:11;17.10;99.90
5834;DHT22;2943;48.012;10.968;2022-07-30T06:25:37;17.20;99.90
5834;DHT22;2943;48.012;10.968;2022-07-30T06:28:04;17.20;99.90
5834;DHT22;2943;48.012;10.968;2022-07-30T06:30:33;17.20;99.90
5834;DHT22;2943;48.012;10.968;2022-07-30T06:32:59;17.30;99.90
5834;DHT22;2943;48.012;10.968;2022-07-30T06:35:26;17.30;99.90
5834;DHT22;2943;48.012;10.968;2022-07-30T06:37:53;17.40;99.90
5834;DHT22;2943;48.012;10.968;2022-07-30T06:40:20;17.40;99.90
5834;DHT22;2943;48.012;10.968;2022-07-30T06:42:47;17.50;99.90
5834;DHT22;2943;48.012;10.968;2022-07-30T06:45:14;17.50;99.90
5834;DHT22;2943;48.012;10.968;2022-07-30T06:47:42;17.60;99.90
5834;DHT22;2943;48.012;10.968;2022-07-30T06:50:09;17.70;99.90
5834;DHT22;2943;48.012;10.968;2022-07-30T06:52:36;17.70;99.90
5834;DHT22;2943;48.012;10.968;2022-07-30T06:55:03;17.80;99.90
5834;DHT22;2943;48.012;10.968;2022-07-30T06:57:30;17.80;99.90
5834;DHT22;2943;48.012;10.968;2022-07-30T06:59:56;17.80;99.90
5834;DHT22;2943;48.012;10.968;2022-07-30T07:02:23;17.90;99.90
5834;DHT22;2943;48.012;10.968;2022-07-30T07:04:51;18.00;99.90
5834;DHT22;2943;48.012;10.968;2022-07-30T07:07:18;18.00;99.90
5834;DHT22;2943;48.012;10.968;2022-07-30T07:09:45;18.10;99.90
5834;DHT22;2943;48.012;10.968;2022-07-30T07:12:12;18.10;99.90
5834;DHT22;2943;48.012;10.968;2022-07-30T07:14:39;18.20;99.90
5834;DHT22;2943;48.012;10.968;2022-07-30T07:17:05;18.20;99.90
5834;DHT22;2943;48.012;10.968;2022-07-30T07:19:33;18.30;99.90
5834;DHT22;2943;48.012;10.968;2022-07-30T07:22:01;18.30;99.90
5834;DHT22;2943;48.012;10.968;2022-07-30T07:24:28;18.30;99.90
5834;DHT22;2943;48.012;10.968;2022-07-30T07:26:55;18.30;99.90
5834;DHT22;2943;48.012;10.968;2022-07-30T07:29:21;18.40;99.90
5834;DHT22;2943;48.012;10.968;2022-07-30T07:31:49;18.40;99.90
5834;DHT22;2943;48.012;10.968;2022-07-30T07:34:15;18.50;99.90
5834;DHT22;2943;48.012;10.968;2022-07-30T07:36:42;18.50;99.90
5834;DHT22;2943;48.012;10.968;2022-07-30T07:39:11;18.60;99.90
5834;DHT22;2943;48.012;10.968;2022-07-30T07:41:37;18.70;99.90
5834;DHT22;2943;48.012;10.968;2022-07-30T07:44:05;18.70;99.90
5834;DHT22;2943;48.012;10.968;2022-07-30T07:46:32;18.80;99.90
5834;DHT22;2943;48.012;10.968;2022-07-30T07:48:59;18.90;99.90
5834;DHT22;2943;48.012;10.968;2022-07-30T07:51:26;18.90;99.90
5834;DHT22;2943;48.012;10.968;2022-07-30T07:53:53;19.00;99.90
5834;DHT22;2943;48.012;10.968;2022-07-30T07:56:21;19.00;99.90
5834;DHT22;2943;48.012;10.968;2022-07-30T07:58:48;19.10;99.90
5834;DHT22;2943;48.012;10.968;2022-07-30T08:01:18;19.20;99.90
5834;DHT22;2943;48.012;10.968;2022-07-30T08:03:45;19.20;99.90
5834;DHT22;2943;48.012;10.968;2022-07-30T08:06:12;19.30;99.90
5834;DHT22;2943;48.012;10.968;2022-07-30T08:08:39;19.30;99.90
5834;DHT22;2943;48.012;10.968;2022-07-30T08:11:05;19.40;99.90
5834;DHT22;2943;48.012;10.968;2022-07-30T08:13:34;19.50;99.90
5834;DHT22;2943;48.012;10.968;2022-07-30T08:16:01;19.40;99.90
5834;DHT22;2943;48.012;10.968;2022-07-30T08:18:27;19.50;99.90
5834;DHT22;2943;48.012;10.968;2022-07-30T08:20:54;19.50;99.90
5834;DHT22;2943;48.012;10.968;2022-07-30T08:23:21;19.60;99.90
5834;DHT22;2943;48.012;10.968;2022-07-30T08:25:48;19.60;99.90
5834;DHT22;2943;48.012;10.968;2022-07-30T08:28:15;19.70;99.90
5834;DHT22;2943;48.012;10.968;2022-07-30T08:30:43;19.80;99.90
5834;DHT22;2943;48.012;10.968;2022-07-30T08:33:11;19.80;99.90
5834;DHT22;2943;48.012;10.968;2022-07-30T08:35:38;19.90;99.90
5834;DHT22;2943;48.012;10.968;2022-07-30T08:38:05;20.00;99.90
5834;DHT22;2943;48.012;10.968;2022-07-30T08:40:33;20.00;99.90
5834;DHT22;2943;48.012;10.968;2022-07-30T08:43:02;20.10;99.90
5834;DHT22;2943;48.012;10.968;2022-07-30T08:45:31;20.20;99.90
5834;DHT22;2943;48.012;10.968;2022-07-30T08:48:01;20.30;99.90
5834;DHT22;2943;48.012;10.968;2022-07-30T08:50:28;20.30;99.90
5834;DHT22;2943;48.012;10.968;2022-07-30T08:52:55;20.40;99.90
5834;DHT22;2943;48.012;10.968;2022-07-30T08:55:22;20.40;99.90
5834;DHT22;2943;48.012;10.968;2022-07-30T08:57:50;20.50;99.90
5834;DHT22;2943;48.012;10.968;2022-07-30T09:00:17;20.50;99.90
5834;DHT22;2943;48.012;10.968;2022-07-30T09:02:46;20.50;99.90
5834;DHT22;2943;48.012;10.968;2022-07-30T09:05:14;20.70;99.90
5834;DHT22;2943;48.012;10.968;2022-07-30T09:07:41;20.70;99.90
5834;DHT22;2943;48.012;10.968;2022-07-30T09:10:09;20.80;99.90
5834;DHT22;2943;48.012;10.968;2022-07-30T09:12:38;20.90;99.90
5834;DHT22;2943;48.012;10.968;2022-07-30T09:15:10;21.00;99.90
5834;DHT22;2943;48.012;10.968;2022-07-30T09:17:50;21.10;99.90
5834;DHT22;2943;48.012;10.968;2022-07-30T09:20:19;21.20;99.90
5834;DHT22;2943;48.012;10.968;2022-07-30T09:22:48;21.30;99.90
5834;DHT22;2943;48.012;10.968;2022-07-30T09:25:15;21.50;99.90
5834;DHT22;2943;48.012;10.968;2022-07-30T09:27:49;21.60;99.90
5834;DHT22;2943;48.012;10.968;2022-07-30T09:30:16;21.70;99.90
5834;DHT22;2943;48.012;10.968;2022-07-30T09:32:48;21.70;99.90
5834;DHT22;2943;48.012;10.968;2022-07-30T09:35:15;21.70;99.90
5834;DHT22;2943;48.012;10.968;2022-07-30T09:37:44;21.70;99.90
5834;DHT22;2943;48.012;10.968;2022-07-30T09:40:13;21.70;99.90
5834;DHT22;2943;48.012;10.968;2022-07-30T09:42:44;21.70;99.90
5834;DHT22;2943;48.012;10.968;2022-07-30T09:45:14;21.80;99.90
5834;DHT22;2943;48.012;10.968;2022-07-30T09:47:42;21.70;99.90
5834;DHT22;2943;48.012;10.968;2022-07-30T09:50:11;21.70;99.90
5834;DHT22;2943;48.012;10.968;2022-07-30T09:52:40;21.80;99.90
5834;DHT22;2943;48.012;10.968;2022-07-30T09:55:12;21.80;99.90
5834;DHT22;2943;48.012;10.968;2022-07-30T09:57:55;21.80;99.90
5834;DHT22;2943;48.012;10.968;2022-07-30T10:00:24;21.80;99.90
5834;DHT22;2943;48.012;10.968;2022-07-30T10:02:51;21.90;99.90
5834;DHT22;2943;48.012;10.968;2022-07-30T10:05:19;22.00;99.90
5834;DHT22;2943;48.012;10.968;2022-07-30T10:07:48;22.00;99.90
5834;DHT22;2943;48.012;10.968;2022-07-30T10:10:18;22.10;99.90
5834;DHT22;2943;48.012;10.968;2022-07-30T10:12:46;22.20;99.90
5834;DHT22;2943;48.012;10.968;2022-07-30T10:15:18;22.30;99.90
5834;DHT22;2943;48.012;10.968;2022-07-30T10:17:46;22.30;99.90
5834;DHT22;2943;48.012;10.968;2022-07-30T10:20:13;22.30;99.90
5834;DHT22;2943;48.012;10.968;2022-07-30T10:22:41;22.30;99.90
5834;DHT22;2943;48.012;10.968;2022-07-30T10:25:09;22.40;99.90
5834;DHT22;2943;48.012;10.968;2022-07-30T10:27:38;22.40;99.90
5834;DHT22;2943;48.012;10.968;2022-07-30T10:30:06;22.40;99.90
5834;DHT22;2943;48.012;10.968;2022-07-30T10:32:33;22.40;99.90
5834;DHT22;2943;48.012;10.968;2022-07-30T10:35:00;22.30;99.90
5834;DHT22;2943;48.012;10.968;2022-07-30T10:37:27;22.10;99.90
5834;DHT22;2943;48.012;10.968;2022-07-30T10:40:00;22.20;99.90
5834;DHT22;2943;48.012;10.968;2022-07-30T10:42:43;22.20;99.90
5834;DHT22;2943;48.012;10.968;2022-07-30T10:45:16;22.30;99.90
5834;DHT22;2943;48.012;10.968;2022-07-30T10:47:45;22.50;99.90
5834;DHT22;2943;48.012;10.968;2022-07-30T10:50:14;22.60;99.90
5834;DHT22;2943;48.012;10.968;2022-07-30T10:52:47;22.70;99.90
5834;DHT22;2943;48.012;10.968;2022-07-30T10:55:19;22.80;99.90
5834;DHT22;2943;48.012;10.968;2022-07-30T10:58:14;22.90;99.90
5834;DHT22;2943;48.012;10.968;2022-07-30T11:00:56;22.90;99.90
5834;DHT22;2943;48.012;10.968;2022-07-30T11:03:25;22.80;99.90
5834;DHT22;2943;48.012;10.968;2022-07-30T11:06:24;22.70;99.90
5834;DHT22;2943;48.012;10.968;2022-07-30T11:08:52;22.60;99.90
5834;DHT22;2943;48.012;10.968;2022-07-30T11:11:42;22.60;99.90
5834;DHT22;2943;48.012;10.968;2022-07-30T11:14:11;22.70;99.90
5834;DHT22;2943;48.012;10.968;2022-07-30T11:16:58;22.80;99.90
5834;DHT22;2943;48.012;10.968;2022-07-30T11:19:25;23.00;99.90
5834;DHT22;2943;48.012;10.968;2022-07-30T11:22:22;23.20;99.90
5834;DHT22;2943;48.012;10.968;2022-07-30T11:24:49;23.40;99.90
5834;DHT22;2943;48.012;10.968;2022-07-30T11:27:37;23.60;99.90
5834;DHT22;2943;48.012;10.968;2022-07-30T11:30:30;23.70;99.90
5834;DHT22;2943;48.012;10.968;2022-07-30T11:33:20;23.50;99.90
5834;DHT22;2943;48.012;10.968;2022-07-30T11:36:09;23.30;99.90
5834;DHT22;2943;48.012;10.968;2022-07-30T11:38:53;23.10;99.90
5834;DHT22;2943;48.012;10.968;2022-07-30T11:41:21;23.00;99.90
5834;DHT22;2943;48.012;10.968;2022-07-30T11:44:27;23.20;99.90
5834;DHT22;2943;48.012;10.968;2022-07-30T11:46:55;23.40;99.90
5834;DHT22;2943;48.012;10.968;2022-07-30T11:49:22;23.60;99.90
5834;DHT22;2943;48.012;10.968;2022-07-30T11:51:49;23.90;99.90
5834;DHT22;2943;48.012;10.968;2022-07-30T11:54:16;24.10;99.90
5834;DHT22;2943;48.012;10.968;2022-07-30T11:56:51;24.30;99.90
5834;DHT22;2943;48.012;10.968;2022-07-30T11:59:18;24.60;99.90
5834;DHT22;2943;48.012;10.968;2022-07-30T12:01:49;24.80;99.90
5834;DHT22;2943;48.012;10.968;2022-07-30T12:04:18;25.10;99.90
5834;DHT22;2943;48.012;10.968;2022-07-30T12:06:46;25.40;99.90
5834;DHT22;2943;48.012;10.968;2022-07-30T12:09:21;25.70;99.90
5834;DHT22;2943;48.012;10.968;2022-07-30T12:11:48;26.00;99.90
5834;DHT22;2943;48.012;10.968;2022-07-30T12:14:15;26.20;99.90
5834;DHT22;2943;48.012;10.968;2022-07-30T12:16:48;26.40;99.90
5834;DHT22;2943;48.012;10.968;2022-07-30T12:19:15;26.60;99.90
5834;DHT22;2943;48.012;10.968;2022-07-30T12:21:43;26.50;99.90
5834;DHT22;2943;48.012;10.968;2022-07-30T12:24:11;26.40;99.90
5834;DHT22;2943;48.012;10.968;2022-07-30T12:26:38;26.30;99.90
5834;DHT22;2943;48.012;10.968;2022-07-30T12:29:06;26.30;99.90
5834;DHT22;2943;48.012;10.968;2022-07-30T12:31:34;26.40;99.90
5834;DHT22;2943;48.012;10.968;2022-07-30T12:34:01;26.50;99.90
5834;DHT22;2943;48.012;10.968;2022-07-30T12:36:29;26.40;99.90
5834;DHT22;2943;48.012;10.968;2022-07-30T12:38:58;26.30;99.90
5834;DHT22;2943;48.012;10.968;2022-07-30T12:41:42;26.10;99.90
5834;DHT22;2943;48.012;10.968;2022-07-30T12:44:09;25.80;99.90
5834;DHT22;2943;48.012;10.968;2022-07-30T12:46:38;25.60;99.90
5834;DHT22;2943;48.012;10.968;2022-07-30T12:49:06;25.50;99.90
5834;DHT22;2943;48.012;10.968;2022-07-30T12:51:35;25.30;99.90
5834;DHT22;2943;48.012;10.968;2022-07-30T12:54:15;25.00;99.90
5834;DHT22;2943;48.012;10.968;2022-07-30T12:56:56;25.00;99.90
5834;DHT22;2943;48.012;10.968;2022-07-30T12:59:24;25.10;99.90
5834;DHT22;2943;48.012;10.968;2022-07-30T13:01:51;25.20;99.90
5834;DHT22;2943;48.012;10.968;2022-07-30T13:04:18;25.20;99.90
5834;DHT22;2943;48.012;10.968;2022-07-30T13:07:03;25.00;99.90
5834;DHT22;2943;48.012;10.968;2022-07-30T13:09:32;25.00;99.90
5834;DHT22;2943;48.012;10.968;2022-07-30T13:11:59;25.10;99.90
5834;DHT22;2943;48.012;10.968;2022-07-30T13:14:26;25.30;99.90
5834;DHT22;2943;48.012;10.968;2022-07-30T13:16:53;25.40;99.90
5834;DHT22;2943;48.012;10.968;2022-07-30T13:19:21;25.40;99.90
5834;DHT22;2943;48.012;10.968;2022-07-30T13:21:48;25.40;99.30
5834;DHT22;2943;48.012;10.968;2022-07-30T13:24:14;25.40;99.80
5834;DHT22;2943;48.012;10.968;2022-07-30T13:26:43;25.40;99.00
5834;DHT22;2943;48.012;10.968;2022-07-30T13:29:09;25.40;99.90
5834;DHT22;2943;48.012;10.968;2022-07-30T13:31:38;25.50;99.90
5834;DHT22;2943;48.012;10.968;2022-07-30T13:34:04;25.70;99.40
5834;DHT22;2943;48.012;10.968;2022-07-30T13:36:32;25.90;99.90
5834;DHT22;2943;48.012;10.968;2022-07-30T13:38:59;26.10;99.90
5834;DHT22;2943;48.012;10.968;2022-07-30T13:41:27;26.20;99.90
5834;DHT22;2943;48.012;10.968;2022-07-30T13:43:55;26.30;99.50
5834;DHT22;2943;48.012;10.968;2022-07-30T13:46:22;26.40;99.40
5834;DHT22;2943;48.012;10.968;2022-07-30T13:48:49;26.40;98.40
5834;DHT22;2943;48.012;10.968;2022-07-30T13:51:15;26.30;97.60
5834;DHT22;2943;48.012;10.968;2022-07-30T13:53:43;26.20;98.20
5834;DHT22;2943;48.012;10.968;2022-07-30T13:56:10;26.10;97.40
5834;DHT22;2943;48.012;10.968;2022-07-30T13:58:36;25.80;98.50
5834;DHT22;2943;48.012;10.968;2022-07-30T15:10:51;27.10;95.50
5834;DHT22;2943;48.012;10.968;2022-07-30T15:13:18;27.30;94.60
5834;DHT22;2943;48.012;10.968;2022-07-30T15:15:46;27.10;94.20
5834;DHT22;2943;48.012;10.968;2022-07-30T15:18:13;26.70;94.50
5834;DHT22;2943;48.012;10.968;2022-07-30T15:20:40;26.30;95.30
5834;DHT22;2943;48.012;10.968;2022-07-30T15:23:08;26.10;95.80
5834;DHT22;2943;48.012;10.968;2022-07-30T15:25:35;25.90;97.20
5834;DHT22;2943;48.012;10.968;2022-07-30T15:28:04;25.70;97.30
5834;DHT22;2943;48.012;10.968;2022-07-30T15:30:31;25.60;97.60
5834;DHT22;2943;48.012;10.968;2022-07-30T15:32:59;25.60;98.30
5834;DHT22;2943;48.012;10.968;2022-07-30T15:35:26;25.70;97.60
5834;DHT22;2943;48.012;10.968;2022-07-30T15:37:54;25.90;97.80
5834;DHT22;2943;48.012;10.968;2022-07-30T15:40:21;26.20;97.60
5834;DHT22;2943;48.012;10.968;2022-07-30T15:42:49;26.40;97.80
5834;DHT22;2943;48.012;10.968;2022-07-30T15:45:18;26.70;95.90
5834;DHT22;2943;48.012;10.968;2022-07-30T15:47:47;27.10;94.60
5834;DHT22;2943;48.012;10.968;2022-07-30T15:50:14;27.30;94.40
5834;DHT22;2943;48.012;10.968;2022-07-30T15:52:42;27.50;94.60
5834;DHT22;2943;48.012;10.968;2022-07-30T15:55:09;27.50;94.40
5834;DHT22;2943;48.012;10.968;2022-07-30T15:57:37;27.20;93.90
5834;DHT22;2943;48.012;10.968;2022-07-30T16:00:06;26.90;93.90
5834;DHT22;2943;48.012;10.968;2022-07-30T16:02:35;26.70;94.10
5834;DHT22;2943;48.012;10.968;2022-07-30T16:05:04;26.40;95.00
5834;DHT22;2943;48.012;10.968;2022-07-30T16:07:31;26.20;95.80
5834;DHT22;2943;48.012;10.968;2022-07-30T16:09:59;26.00;96.10
5834;DHT22;2943;48.012;10.968;2022-07-30T16:12:26;25.80;95.70
5834;DHT22;2943;48.012;10.968;2022-07-30T16:14:54;25.60;96.80
5834;DHT22;2943;48.012;10.968;2022-07-30T16:17:21;25.50;96.90
5834;DHT22;2943;48.012;10.968;2022-07-30T16:19:50;25.30;97.80
5834;DHT22;2943;48.012;10.968;2022-07-30T16:22:17;25.20;97.90
5834;DHT22;2943;48.012;10.968;2022-07-30T16:24:44;25.00;98.40
5834;DHT22;2943;48.012;10.968;2022-07-30T16:27:12;24.90;98.50
5834;DHT22;2943;48.012;10.968;2022-07-30T16:29:39;24.80;99.30
5834;DHT22;2943;48.012;10.968;2022-07-30T16:32:06;24.70;99.90
5834;DHT22;2943;48.012;10.968;2022-07-30T16:34:34;24.70;99.90
5834;DHT22;2943;48.012;10.968;2022-07-30T16:37:03;24.60;99.90
5834;DHT22;2943;48.012;10.968;2022-07-30T16:39:30;24.70;99.90
5834;DHT22;2943;48.012;10.968;2022-07-30T16:41:58;24.80;99.90
5834;DHT22;2943;48.012;10.968;2022-07-30T16:44:25;24.80;99.90
5834;DHT22;2943;48.012;10.968;2022-07-30T16:46:56;24.80;99.90
5834;DHT22;2943;48.012;10.968;2022-07-30T16:49:23;24.90;99.90
5834;DHT22;2943;48.012;10.968;2022-07-30T16:51:51;24.80;99.90
5834;DHT22;2943;48.012;10.968;2022-07-30T16:54:26;24.90;99.90
5834;DHT22;2943;48.012;10.968;2022-07-30T16:56:53;25.00;99.90
5834;DHT22;2943;48.012;10.968;2022-07-30T16:59:21;25.00;99.90
5834;DHT22;2943;48.012;10.968;2022-07-30T17:01:48;25.20;99.90
5834;DHT22;2943;48.012;10.968;2022-07-30T17:04:15;25.10;99.90
5834;DHT22;2943;48.012;10.968;2022-07-30T17:06:43;25.00;99.90